logo
Search for airport 
image banner adimage banner adimage banner ad
image banner ad

CDY6 - Dayspring Airpark

Located in Bridgewater, Canada

ICAO - CDY6, IATA -

Data provided by Airmate  

General information

Coordinates: N44°22'55" W64°27'27"
Elevation is 150 feet MSL.
Magnetic variation is -17.4167° East
View others Airports in Nova Scotia

Operational data

Special qualification required
Current time UTC:
Current local time:
Weather at : CYZX - Greenwood ( 76 km )
METAR: CYZX 230400Z 23003KT 15SM SKC M00/M06 A3015 RMK DENSITY ALT -1996FT SLP212
TAF: TAF CYZX 222340Z 2300/2324 26010KT P6SM SKC BECMG 2300/2302 29005KT BECMG 2302/2304 00000KT FM231200 13007KT P6SM SKC BECMG 2313/2315 17010KT FM231800 16012KT P6SM SCT250 FM232000 15010KT P6SM BKN250 RMK NXT FCST BY 230600Z
View NOTAMs / SUP AIP / TFR affecting this airport [VIEW]
Communications frequencies: [VIEW]

Runways:

RWY identifierQFULength (ft)Width (ft)SurfaceLDA (ft)
15172830GRAVE
33172830GRAVE

Airport contact information

Address: Bridgewater Canada

Satellite view of CDY6